createdAt,value
2023-01-13T00:00:16.561Z,71.50
2023-01-13T00:02:43.568Z,72.25
2023-01-13T00:05:10.731Z,71.43
2023-01-13T00:07:37.878Z,71.19
2023-01-13T00:10:05.519Z,71.70
2023-01-13T00:12:32.467Z,72.16
2023-01-13T00:14:59.418Z,71.29
2023-01-13T00:17:26.428Z,71.11
2023-01-13T00:19:53.218Z,71.76
2023-01-13T00:22:20.114Z,71.34
2023-01-13T00:24:47.022Z,70.56
2023-01-13T00:27:14.101Z,71.15
2023-01-13T00:29:40.982Z,71.18
2023-01-13T00:32:08.024Z,70.82
2023-01-13T00:34:34.984Z,70.50
2023-01-13T00:37:01.896Z,72.49
2023-01-13T00:39:28.828Z,71.75
2023-01-13T00:41:55.719Z,72.32
2023-01-13T00:44:22.638Z,72.27
2023-01-13T00:46:49.567Z,71.60
2023-01-13T00:49:16.537Z,72.52
2023-01-13T00:51:43.363Z,72.37
2023-01-13T00:54:10.384Z,71.98
2023-01-13T00:56:40.461Z,72.19
2023-01-13T00:59:12.093Z,71.85
2023-01-13T01:01:39.128Z,70.98
2023-01-13T01:04:06.198Z,71.35
2023-01-13T01:06:33.067Z,70.53
2023-01-13T01:09:00.009Z,70.49
2023-01-13T01:11:30.213Z,71.02
2023-01-13T01:13:59.506Z,70.62
2023-01-13T01:16:29.792Z,71.21
2023-01-13T01:18:57.141Z,71.41
2023-01-13T01:21:26.023Z,71.22
2023-01-13T01:23:53.711Z,70.50
2023-01-13T01:26:26.057Z,70.02
2023-01-13T01:28:53.207Z,69.85
2023-01-13T01:31:27.003Z,70.12
2023-01-13T01:33:54.801Z,69.96
2023-01-13T01:36:23.461Z,70.19
2023-01-13T01:38:50.556Z,70.13
2023-01-13T01:41:23.879Z,70.04
2023-01-13T01:43:59.949Z,69.49
2023-01-13T01:46:48.356Z,69.71
2023-01-13T01:49:32.730Z,69.64
2023-01-13T01:52:06.820Z,69.78
2023-01-13T01:54:57.129Z,69.68
2023-01-13T01:57:30.007Z,71.23
2023-01-13T02:00:00.544Z,72.87
2023-01-13T02:02:29.415Z,73.93
2023-01-13T02:04:56.613Z,74.61
2023-01-13T02:07:29.149Z,74.98
2023-01-13T02:09:58.005Z,76.35
2023-01-13T02:12:27.193Z,77.13
2023-01-13T02:14:54.064Z,77.23
2023-01-13T02:17:21.045Z,76.05
2023-01-13T02:20:35.774Z,74.48
2023-01-13T02:23:21.286Z,74.33
2023-01-13T02:26:12.210Z,75.41
2023-01-13T02:28:54.349Z,76.01
2023-01-13T02:31:21.405Z,75.23
2023-01-13T02:34:01.794Z,75.08
2023-01-13T02:37:00.145Z,73.63
2023-01-13T02:39:46.242Z,73.36
2023-01-13T02:42:23.072Z,72.97
2023-01-13T02:44:57.850Z,72.31
2023-01-13T02:47:30.908Z,72.38
2023-01-13T02:50:12.095Z,73.62
2023-01-13T02:52:46.596Z,73.93
2023-01-13T02:55:18.425Z,73.75
2023-01-13T02:57:47.147Z,72.67
2023-01-13T03:00:16.627Z,72.82
2023-01-13T03:02:43.626Z,73.29
2023-01-13T03:05:15.399Z,73.49
2023-01-13T03:08:00.985Z,73.84
2023-01-13T03:11:07.373Z,73.61
2023-01-13T03:13:51.377Z,73.57
2023-01-13T03:16:42.627Z,72.89
2023-01-13T03:19:15.394Z,72.16
2023-01-13T03:21:48.585Z,72.25
2023-01-13T03:24:34.988Z,73.50
2023-01-13T03:27:14.319Z,73.52
2023-01-13T03:29:46.785Z,73.89
2023-01-13T03:32:31.985Z,75.38
2023-01-13T03:35:14.949Z,75.60
2023-01-13T03:37:47.040Z,75.04
2023-01-13T03:40:35.937Z,74.36
2023-01-13T03:43:21.148Z,74.08
2023-01-13T03:45:55.127Z,73.48
2023-01-13T03:48:25.651Z,72.83
2023-01-13T03:50:56.071Z,73.02
2023-01-13T03:53:33.449Z,73.46
2023-01-13T03:56:09.641Z,73.01
2023-01-13T03:58:42.816Z,72.56
2023-01-13T04:01:18.155Z,72.56
2023-01-13T04:03:50.925Z,72.40
2023-01-13T04:06:30.056Z,72.10
2023-01-13T04:09:07.293Z,72.46
2023-01-13T04:11:40.019Z,72.22
2023-01-13T04:14:10.265Z,72.29
2023-01-13T04:16:38.067Z,72.16
2023-01-13T04:19:05.242Z,72.64
2023-01-13T04:21:33.489Z,72.62
2023-01-13T04:24:00.420Z,71.95
2023-01-13T04:26:27.284Z,72.33
2023-01-13T04:28:54.413Z,73.15
2023-01-13T04:31:21.719Z,72.96
2023-01-13T04:33:48.793Z,72.56
2023-01-13T04:36:15.774Z,71.80
2023-01-13T04:38:42.716Z,72.19
2023-01-13T04:41:09.759Z,72.09
2023-01-13T04:43:36.976Z,71.79
2023-01-13T04:46:03.914Z,71.89
2023-01-13T04:48:30.840Z,72.01
2023-01-13T04:50:57.817Z,71.87
2023-01-13T04:53:24.952Z,71.95
2023-01-13T04:55:51.862Z,72.01
2023-01-13T04:58:21.672Z,72.14
2023-01-13T05:00:50.955Z,71.68
2023-01-13T05:03:17.920Z,71.88
2023-01-13T05:05:44.930Z,73.98
2023-01-13T05:08:12.183Z,74.84
2023-01-13T05:10:39.177Z,75.24
2023-01-13T05:13:06.156Z,78.05
2023-01-13T05:15:33.217Z,76.80
2023-01-13T05:18:01.621Z,75.93
2023-01-13T05:20:28.579Z,76.28
2023-01-13T05:22:55.557Z,76.05
2023-01-13T05:25:23.050Z,76.10
2023-01-13T05:27:50.761Z,75.88
2023-01-13T05:30:18.217Z,73.65
2023-01-13T05:32:45.115Z,73.22
2023-01-13T05:35:12.107Z,71.35
2023-01-13T05:37:38.957Z,71.20
2023-01-13T05:40:06.642Z,71.12
2023-01-13T05:42:33.625Z,72.33
2023-01-13T05:45:00.487Z,72.81
2023-01-13T05:47:27.487Z,73.29
2023-01-13T05:49:54.341Z,72.47
2023-01-13T05:52:21.323Z,71.36
2023-01-13T05:54:48.113Z,71.20
2023-01-13T05:57:15.084Z,71.78
2023-01-13T05:59:44.268Z,71.41
2023-01-13T06:02:11.169Z,72.28
2023-01-13T06:04:38.087Z,72.60
2023-01-13T06:07:05.348Z,73.37
2023-01-13T06:09:32.223Z,72.37
2023-01-13T06:11:59.081Z,72.35
2023-01-13T06:14:26.003Z,72.24
2023-01-13T06:16:52.913Z,71.92
2023-01-13T06:19:19.786Z,70.99
2023-01-13T06:21:46.675Z,70.88
2023-01-13T06:24:13.592Z,70.44
2023-01-13T06:26:41.551Z,69.19
2023-01-13T06:29:08.401Z,68.58
2023-01-13T06:31:39.370Z,70.31
2023-01-13T06:34:09.951Z,71.51
2023-01-13T06:36:41.672Z,71.63
2023-01-13T06:39:11.528Z,72.48
2023-01-13T06:41:38.698Z,73.11
2023-01-13T06:44:05.943Z,72.45
2023-01-13T06:46:33.134Z,72.64
2023-01-13T06:49:00.119Z,72.09
2023-01-13T06:51:27.246Z,70.52
2023-01-13T06:53:54.165Z,70.50
2023-01-13T06:56:21.192Z,69.96
2023-01-13T06:58:48.117Z,69.83
2023-01-13T07:01:15.133Z,70.66
2023-01-13T07:03:42.208Z,70.65
2023-01-13T07:06:09.061Z,69.90
2023-01-13T07:08:36.096Z,69.89
2023-01-13T07:11:03.386Z,69.52
2023-01-13T07:13:30.371Z,69.84
2023-01-13T07:15:59.343Z,69.37
2023-01-13T07:18:27.914Z,69.14
2023-01-13T07:20:56.608Z,67.95
2023-01-13T07:23:23.888Z,66.84
2023-01-13T07:25:50.886Z,65.56
2023-01-13T07:28:17.792Z,64.84
2023-01-13T07:30:44.890Z,66.34
2023-01-13T07:33:11.877Z,65.19
2023-01-13T07:35:38.788Z,66.16
2023-01-13T07:38:05.756Z,67.14
2023-01-13T07:40:32.668Z,69.15
2023-01-13T07:42:59.642Z,69.20
2023-01-13T07:45:26.721Z,68.87
2023-01-13T07:47:53.756Z,67.20
2023-01-13T07:50:20.914Z,65.80
2023-01-13T07:52:47.761Z,66.22
2023-01-13T07:55:14.796Z,67.50
2023-01-13T07:57:41.633Z,67.59
2023-01-13T08:00:11.434Z,68.29
2023-01-13T08:02:39.783Z,67.83
2023-01-13T08:05:07.223Z,67.74
2023-01-13T08:07:34.213Z,67.06
2023-01-13T08:10:01.328Z,66.47
2023-01-13T08:12:29.222Z,65.06
2023-01-13T08:14:56.272Z,64.35
2023-01-13T08:17:23.119Z,63.64
2023-01-13T08:19:50.306Z,63.17
2023-01-13T08:22:17.219Z,63.76
2023-01-13T08:24:44.173Z,61.97
2023-01-13T08:27:11.099Z,61.00
2023-01-13T08:29:38.041Z,62.92
2023-01-13T08:32:05.185Z,61.50
2023-01-13T08:34:32.059Z,62.39
2023-01-13T08:36:58.918Z,60.33
2023-01-13T08:39:25.728Z,62.13
2023-01-13T08:41:52.790Z,63.42
2023-01-13T08:44:19.777Z,62.64
2023-01-13T08:46:46.743Z,62.31
2023-01-13T08:49:13.687Z,61.60
2023-01-13T08:51:40.614Z,61.24
2023-01-13T08:54:07.619Z,60.47
2023-01-13T08:56:35.637Z,59.93
2023-01-13T08:59:03.150Z,58.21
2023-01-13T09:01:30.229Z,59.01
2023-01-13T09:03:57.293Z,58.57
2023-01-13T09:06:24.308Z,58.77
2023-01-13T09:08:51.269Z,58.43
2023-01-13T09:11:29.453Z,57.36
2023-01-13T09:13:56.431Z,56.36
2023-01-13T09:16:23.495Z,56.48
2023-01-13T09:18:50.364Z,55.99
2023-01-13T09:21:18.428Z,56.06
2023-01-13T09:23:45.442Z,56.98
2023-01-13T09:26:21.479Z,57.11
2023-01-13T09:28:48.532Z,56.02
2023-01-13T09:31:15.558Z,56.69
2023-01-13T09:33:42.436Z,56.26
2023-01-13T09:36:09.351Z,57.25
2023-01-13T09:38:36.366Z,56.14
2023-01-13T09:41:03.530Z,55.99
2023-01-13T09:43:38.271Z,54.27
2023-01-13T09:46:18.551Z,53.61
2023-01-13T09:48:45.721Z,52.75
2023-01-13T09:51:28.202Z,53.63
2023-01-13T09:54:00.814Z,52.58
2023-01-13T09:56:27.799Z,52.05
2023-01-13T09:58:54.741Z,52.67
2023-01-13T10:01:27.181Z,53.01
2023-01-13T10:03:54.426Z,52.95
2023-01-13T10:06:30.642Z,53.39
2023-01-13T10:08:58.206Z,53.59
2023-01-13T10:11:26.043Z,52.22
2023-01-13T10:13:58.272Z,51.19
2023-01-13T10:16:40.917Z,51.76
2023-01-13T10:19:26.054Z,51.04
2023-01-13T10:22:01.878Z,50.61
2023-01-13T10:24:49.617Z,50.35
2023-01-13T10:27:33.784Z,50.84
2023-01-13T10:30:21.628Z,50.13
2023-01-13T10:32:56.741Z,49.79
2023-01-13T10:35:53.255Z,49.70
2023-01-13T10:38:30.882Z,50.42
2023-01-13T10:41:03.666Z,47.53
2023-01-13T10:43:31.515Z,49.31
2023-01-13T10:46:07.388Z,50.42
2023-01-13T10:48:38.513Z,50.83
2023-01-13T10:51:14.395Z,50.12
2023-01-13T10:53:59.653Z,50.49
2023-01-13T10:56:34.225Z,51.01
2023-01-13T10:59:26.269Z,49.33
2023-01-13T11:02:01.224Z,49.60
2023-01-13T11:04:31.318Z,50.20
2023-01-13T11:06:59.622Z,48.17
2023-01-13T11:09:27.805Z,47.81
2023-01-13T11:11:56.678Z,46.63
2023-01-13T11:14:26.531Z,46.45
2023-01-13T11:16:58.287Z,46.30
2023-01-13T11:19:29.085Z,48.48
2023-01-13T11:22:04.747Z,48.33
2023-01-13T11:24:54.436Z,47.43
2023-01-13T11:27:44.233Z,47.30
2023-01-13T11:30:26.486Z,46.74
2023-01-13T11:33:00.449Z,46.70
2023-01-13T11:35:29.753Z,46.71
2023-01-13T11:38:08.993Z,47.06
2023-01-13T11:40:46.924Z,47.04
2023-01-13T11:43:40.039Z,47.17
2023-01-13T11:46:09.028Z,46.89
2023-01-13T11:48:40.782Z,48.07
2023-01-13T11:51:13.667Z,47.85
2023-01-13T11:53:46.578Z,46.03
2023-01-13T11:56:56.008Z,46.36
2023-01-13T11:59:43.345Z,46.86
2023-01-13T12:02:25.389Z,47.25
2023-01-13T12:05:23.934Z,47.15
2023-01-13T12:08:18.848Z,47.98
2023-01-13T12:11:07.115Z,48.45
2023-01-13T12:13:52.392Z,48.15
2023-01-13T12:16:32.190Z,48.48
2023-01-13T12:19:19.235Z,48.29
2023-01-13T12:22:04.936Z,48.33
2023-01-13T12:24:44.715Z,48.32
2023-01-13T12:27:32.666Z,48.38
2023-01-13T12:30:03.416Z,47.92
2023-01-13T12:32:38.130Z,47.86
2023-01-13T12:35:23.667Z,48.47
2023-01-13T12:37:53.343Z,48.60
2023-01-13T12:40:48.692Z,49.39
2023-01-13T12:43:17.631Z,48.91
2023-01-13T12:45:44.643Z,48.62
2023-01-13T12:48:48.696Z,48.60
2023-01-13T12:51:31.168Z,48.31
2023-01-13T12:53:58.395Z,48.95
2023-01-13T12:56:28.435Z,48.74
2023-01-13T12:59:17.221Z,48.16
2023-01-13T13:01:46.422Z,48.58
2023-01-13T13:04:20.778Z,47.86
2023-01-13T13:07:03.444Z,47.93
2023-01-13T13:09:39.848Z,48.02
2023-01-13T13:12:31.502Z,47.80
2023-01-13T13:14:58.329Z,47.50
2023-01-13T13:17:31.510Z,48.03
2023-01-13T13:20:00.258Z,47.20
2023-01-13T13:22:27.251Z,47.85
2023-01-13T13:24:57.023Z,48.35
2023-01-13T13:27:39.185Z,47.95
2023-01-13T13:30:28.815Z,48.79
2023-01-13T13:33:12.784Z,48.86
2023-01-13T13:36:01.227Z,48.63
2023-01-13T13:38:37.073Z,48.75
2023-01-13T13:43:46.513Z,49.50
2023-01-13T13:46:34.655Z,50.07
2023-01-13T13:49:02.379Z,50.67
2023-01-13T13:51:40.082Z,50.63
2023-01-13T13:54:15.638Z,51.15
2023-01-13T13:56:47.201Z,50.80
2023-01-13T13:59:25.485Z,51.81
2023-01-13T14:02:01.929Z,51.93
2023-01-13T14:04:36.559Z,52.32
2023-01-13T14:07:21.439Z,51.99
2023-01-13T14:09:51.832Z,52.90
2023-01-13T14:12:25.676Z,53.05
2023-01-13T14:14:57.225Z,52.96
2023-01-13T14:17:30.682Z,53.93
2023-01-13T14:20:34.087Z,53.24
2023-01-13T14:23:17.839Z,53.35
2023-01-13T14:25:56.521Z,53.96
2023-01-13T14:28:48.919Z,54.14
2023-01-13T14:31:17.048Z,54.47
2023-01-13T14:33:48.687Z,54.70
2023-01-13T14:36:24.160Z,55.06
2023-01-13T14:39:10.950Z,55.19
2023-01-13T14:41:45.600Z,55.63
2023-01-13T14:44:32.277Z,56.39
2023-01-13T14:47:03.128Z,56.16
2023-01-13T14:50:03.981Z,56.96
2023-01-13T14:52:34.231Z,57.04
2023-01-13T14:55:06.790Z,57.25
2023-01-13T14:57:35.303Z,57.34
2023-01-13T15:00:14.484Z,57.63
2023-01-13T15:02:46.740Z,58.23
2023-01-13T15:05:19.460Z,58.04
2023-01-13T15:07:58.225Z,58.41
2023-01-13T15:10:31.440Z,58.42
2023-01-13T15:13:03.222Z,59.11
2023-01-13T15:15:31.865Z,59.34
2023-01-13T15:18:02.244Z,59.02
2023-01-13T15:20:29.368Z,59.47
2023-01-13T15:22:56.816Z,59.26
2023-01-13T15:25:24.785Z,59.54
2023-01-13T15:27:53.195Z,59.48
2023-01-13T15:30:27.923Z,60.00
2023-01-13T15:33:01.199Z,59.91
2023-01-13T15:35:29.358Z,60.18
2023-01-13T15:37:58.859Z,59.64
2023-01-13T15:40:31.483Z,60.71
2023-01-13T15:42:59.014Z,60.29
2023-01-13T15:45:27.167Z,60.50
2023-01-13T15:47:54.202Z,61.12
2023-01-13T15:50:21.131Z,60.73
2023-01-13T15:52:48.603Z,61.52
2023-01-13T15:55:21.791Z,61.62
2023-01-13T15:57:50.517Z,61.76
2023-01-13T16:00:23.365Z,61.49
2023-01-13T16:02:51.120Z,61.73
2023-01-13T16:05:21.408Z,62.07
2023-01-13T16:07:48.364Z,62.17
2023-01-13T16:10:19.740Z,62.86
2023-01-13T16:12:46.784Z,62.88
2023-01-13T16:15:15.348Z,63.03
2023-01-13T16:17:44.947Z,62.22
2023-01-13T16:20:17.500Z,62.73
2023-01-13T16:22:45.474Z,62.45
2023-01-13T16:25:23.018Z,62.03
2023-01-13T16:27:51.070Z,62.63
2023-01-13T16:30:41.163Z,62.15
2023-01-13T16:33:08.073Z,62.62
2023-01-13T16:35:35.230Z,62.39
2023-01-13T16:38:02.511Z,62.34
2023-01-13T16:40:31.889Z,62.49
2023-01-13T16:43:00.541Z,62.49
2023-01-13T16:45:27.994Z,62.98
2023-01-13T16:48:01.316Z,62.42
2023-01-13T16:50:40.741Z,61.36
2023-01-13T16:53:11.153Z,60.37
2023-01-13T16:55:39.818Z,59.54
2023-01-13T16:58:17.412Z,58.72
2023-01-13T17:00:45.194Z,59.09
2023-01-13T17:03:12.131Z,59.40
2023-01-13T17:05:44.901Z,59.29
2023-01-13T17:08:17.777Z,59.08
2023-01-13T17:10:45.867Z,59.21
2023-01-13T17:13:16.404Z,58.84
2023-01-13T17:15:44.274Z,58.53
2023-01-13T17:18:11.099Z,58.29
2023-01-13T17:20:40.271Z,58.67
2023-01-13T17:23:07.153Z,58.47
2023-01-13T17:25:34.254Z,58.48
2023-01-13T17:28:01.250Z,58.35
2023-01-13T17:30:28.189Z,58.17
2023-01-13T17:32:57.943Z,57.85
2023-01-13T17:35:26.236Z,57.59
2023-01-13T17:38:01.057Z,56.30
2023-01-13T17:40:27.962Z,56.14
2023-01-13T17:42:54.869Z,56.41
2023-01-13T17:45:21.779Z,55.78
2023-01-13T17:47:48.753Z,55.75
2023-01-13T17:50:17.549Z,54.10
2023-01-13T17:52:44.497Z,55.64
2023-01-13T17:55:12.666Z,55.75
2023-01-13T17:57:39.542Z,55.87
2023-01-13T18:00:07.137Z,55.80
2023-01-13T18:02:37.400Z,55.68
2023-01-13T18:05:04.598Z,54.93
2023-01-13T18:07:31.606Z,54.96
2023-01-13T18:09:58.622Z,55.16
2023-01-13T18:12:25.586Z,55.45
2023-01-13T18:14:52.605Z,55.67
2023-01-13T18:17:19.462Z,55.73
2023-01-13T18:19:48.165Z,54.51
2023-01-13T18:22:15.086Z,54.10
2023-01-13T18:24:42.156Z,53.67
2023-01-13T18:27:12.398Z,54.43
2023-01-13T18:29:39.416Z,55.09
2023-01-13T18:32:06.756Z,55.22
2023-01-13T18:34:33.750Z,55.53
2023-01-13T18:37:00.600Z,56.11
2023-01-13T18:39:27.810Z,56.37
2023-01-13T18:41:57.571Z,56.57
2023-01-13T18:44:24.357Z,57.70
2023-01-13T18:46:51.231Z,58.40
2023-01-13T18:49:18.312Z,58.56
2023-01-13T18:51:45.163Z,59.16
2023-01-13T18:54:11.991Z,60.09
2023-01-13T18:56:38.991Z,61.22
2023-01-13T18:59:05.847Z,62.04
2023-01-13T19:01:32.950Z,62.04
2023-01-13T19:04:02.131Z,61.94
2023-01-13T19:06:32.258Z,61.96
2023-01-13T19:09:00.559Z,62.63
2023-01-13T19:11:28.276Z,62.52
2023-01-13T19:13:57.444Z,61.85
2023-01-13T19:16:24.435Z,61.78
2023-01-13T19:18:51.377Z,62.29
2023-01-13T19:21:18.358Z,63.64
2023-01-13T19:23:45.376Z,63.27
2023-01-13T19:26:13.222Z,63.30
2023-01-13T19:28:40.769Z,63.20
2023-01-13T19:31:10.748Z,63.22
2023-01-13T19:33:40.270Z,62.12
2023-01-13T19:36:08.211Z,61.40
2023-01-13T19:38:37.177Z,62.06
2023-01-13T19:41:06.482Z,61.63
2023-01-13T19:43:33.448Z,60.96
2023-01-13T19:46:00.468Z,60.73
2023-01-13T19:48:27.548Z,60.23
2023-01-13T19:50:54.590Z,60.39
2023-01-13T19:53:22.643Z,61.08
2023-01-13T19:55:51.812Z,61.40
2023-01-13T19:58:19.216Z,62.02
2023-01-13T20:00:46.888Z,61.90
2023-01-13T20:03:18.509Z,61.58
2023-01-13T20:05:45.349Z,62.03
2023-01-13T20:08:12.725Z,61.60
2023-01-13T20:10:42.860Z,61.21
2023-01-13T20:13:09.919Z,60.88
2023-01-13T20:15:38.668Z,60.79
2023-01-13T20:18:08.800Z,60.09
2023-01-13T20:20:38.610Z,60.06
2023-01-13T20:23:09.772Z,60.21
2023-01-13T20:25:36.720Z,60.39
2023-01-13T20:28:03.975Z,60.70
2023-01-13T20:30:30.915Z,60.22
2023-01-13T20:32:57.842Z,60.44
2023-01-13T20:35:27.561Z,59.76
2023-01-13T20:37:57.261Z,60.62
2023-01-13T20:40:24.323Z,60.44
2023-01-13T20:42:51.263Z,61.01
2023-01-13T20:45:20.328Z,61.40
2023-01-13T20:47:47.807Z,61.77
2023-01-13T20:50:16.305Z,62.27
2023-01-13T20:52:47.025Z,62.26
2023-01-13T20:55:16.752Z,61.95
2023-01-13T20:57:43.710Z,62.33
2023-01-13T21:00:12.890Z,62.55
2023-01-13T21:02:40.424Z,62.24
2023-01-13T21:05:07.594Z,62.07
2023-01-13T21:07:34.539Z,61.56
2023-01-13T21:10:01.565Z,60.92
2023-01-13T21:12:28.600Z,60.93
2023-01-13T21:14:55.556Z,61.49
2023-01-13T21:17:23.029Z,61.71
2023-01-13T21:19:50.617Z,61.50
2023-01-13T21:22:17.610Z,62.50
2023-01-13T21:24:44.500Z,63.19
2023-01-13T21:27:11.509Z,63.05
2023-01-13T21:29:38.541Z,62.58
2023-01-13T21:32:05.857Z,62.54
2023-01-13T21:34:32.910Z,64.02
2023-01-13T21:36:59.873Z,63.93
2023-01-13T21:39:27.104Z,64.19
2023-01-13T21:41:54.493Z,63.65
2023-01-13T21:44:21.925Z,62.95
2023-01-13T21:46:48.789Z,62.53
2023-01-13T21:49:15.680Z,62.60
2023-01-13T21:51:44.885Z,62.04
2023-01-13T21:54:11.851Z,61.84
2023-01-13T21:56:38.749Z,61.75
2023-01-13T21:59:05.599Z,62.00
2023-01-13T22:01:32.659Z,62.47
2023-01-13T22:03:59.864Z,62.60
2023-01-13T22:06:27.532Z,62.58
2023-01-13T22:08:58.506Z,62.69
2023-01-13T22:11:25.622Z,62.84
2023-01-13T22:13:52.585Z,62.92
2023-01-13T22:16:19.623Z,62.76
2023-01-13T22:18:46.588Z,63.26
2023-01-13T22:21:13.679Z,62.90
2023-01-13T22:23:40.676Z,62.49
2023-01-13T22:26:09.041Z,62.37
2023-01-13T22:28:36.791Z,61.90
2023-01-13T22:31:08.073Z,61.82
2023-01-13T22:33:35.232Z,61.72
2023-01-13T22:36:02.100Z,62.79
2023-01-13T22:38:29.366Z,61.85
2023-01-13T22:40:58.411Z,62.08
2023-01-13T22:43:25.399Z,61.88
2023-01-13T22:46:03.421Z,62.12
2023-01-13T22:48:30.629Z,61.66
2023-01-13T22:50:57.484Z,61.76
2023-01-13T22:53:24.371Z,61.94
2023-01-13T22:55:58.437Z,61.67
2023-01-13T22:58:26.330Z,61.30
2023-01-13T23:00:53.568Z,60.74
2023-01-13T23:03:20.448Z,60.90
2023-01-13T23:05:47.531Z,60.82
2023-01-13T23:08:14.869Z,61.09
2023-01-13T23:10:41.938Z,60.98
2023-01-13T23:13:09.305Z,61.02
2023-01-13T23:15:36.320Z,61.18
2023-01-13T23:18:03.235Z,62.12
2023-01-13T23:20:30.887Z,63.07
2023-01-13T23:22:57.927Z,62.02
2023-01-13T23:25:25.793Z,61.97
2023-01-13T23:27:53.833Z,61.60
2023-01-13T23:30:20.841Z,61.66
2023-01-13T23:32:47.777Z,61.56
2023-01-13T23:35:14.971Z,62.16
2023-01-13T23:37:41.899Z,62.44
2023-01-13T23:40:09.627Z,62.19
2023-01-13T23:42:36.746Z,61.44
2023-01-13T23:45:04.183Z,60.85
2023-01-13T23:47:31.009Z,60.94
2023-01-13T23:49:57.881Z,61.29
2023-01-13T23:52:24.770Z,61.73
2023-01-13T23:54:51.781Z,61.65
2023-01-13T23:57:18.932Z,61.91
2023-01-13T23:59:45.894Z,61.35
